createdAt,value
2017-08-25T00:00:11.618Z,94
2017-08-25T00:01:14.417Z,94
2017-08-25T00:02:17.215Z,94
2017-08-25T00:03:19.709Z,94
2017-08-25T00:04:22.158Z,94
2017-08-25T00:05:24.982Z,94
2017-08-25T00:06:27.442Z,94
2017-08-25T00:07:30.576Z,94
2017-08-25T00:08:33.046Z,95
2017-08-25T00:09:35.502Z,95
2017-08-25T00:10:37.960Z,95
2017-08-25T00:11:40.416Z,95
2017-08-25T00:12:42.879Z,95
2017-08-25T00:13:45.328Z,95
2017-08-25T00:14:48.132Z,95
2017-08-25T00:15:50.591Z,95
2017-08-25T00:16:53.162Z,95
2017-08-25T00:17:55.604Z,95
2017-08-25T00:18:58.066Z,95
2017-08-25T00:20:00.519Z,95
2017-08-25T00:21:03.335Z,95
2017-08-25T00:22:05.792Z,95
2017-08-25T00:23:08.271Z,95
2017-08-25T00:24:10.739Z,95
2017-08-25T00:25:13.205Z,95
2017-08-25T00:26:15.666Z,95
2017-08-25T00:27:18.121Z,95
2017-08-25T00:28:20.579Z,95
2017-08-25T00:29:23.055Z,95
2017-08-25T00:30:25.498Z,95
2017-08-25T00:31:27.956Z,95
2017-08-25T00:32:30.417Z,95
2017-08-25T00:33:33.228Z,95
2017-08-25T00:34:36.024Z,95
2017-08-25T00:35:38.825Z,95
2017-08-25T00:36:41.269Z,95
2017-08-25T00:37:43.735Z,95
2017-08-25T00:38:46.194Z,95
2017-08-25T00:39:48.637Z,95
2017-08-25T00:40:51.116Z,95
2017-08-25T00:41:53.572Z,95
2017-08-25T00:42:56.370Z,95
2017-08-25T00:43:58.826Z,95
2017-08-25T00:45:01.275Z,95
2017-08-25T00:46:03.724Z,95
2017-08-25T00:47:06.191Z,95
2017-08-25T00:48:08.630Z,95
2017-08-25T00:49:11.102Z,95
2017-08-25T00:50:13.557Z,95
2017-08-25T00:51:16.013Z,96
2017-08-25T00:52:18.491Z,96
2017-08-25T00:53:20.948Z,96
2017-08-25T00:54:23.403Z,96
2017-08-25T00:55:25.865Z,96
2017-08-25T00:56:28.340Z,96
2017-08-25T00:57:30.792Z,96
2017-08-25T00:58:33.587Z,96
2017-08-25T00:59:36.038Z,96
2017-08-25T01:00:38.834Z,96
2017-08-25T01:01:41.968Z,96
2017-08-25T01:02:44.774Z,96
2017-08-25T01:03:47.235Z,96
2017-08-25T01:04:49.688Z,96
2017-08-25T01:05:52.147Z,96
2017-08-25T01:06:54.607Z,96
2017-08-25T01:07:57.431Z,96
2017-08-25T01:08:59.885Z,96
2017-08-25T01:10:02.334Z,96
2017-08-25T01:11:05.127Z,96
2017-08-25T01:12:07.582Z,96
2017-08-25T01:13:10.023Z,96
2017-08-25T01:14:12.475Z,96
2017-08-25T01:15:14.939Z,96
2017-08-25T01:16:17.390Z,96
2017-08-25T01:17:20.525Z,96
2017-08-25T01:18:22.982Z,96
2017-08-25T01:19:25.437Z,96
2017-08-25T01:20:27.899Z,96
2017-08-25T01:21:30.352Z,96
2017-08-25T01:22:32.799Z,96
2017-08-25T01:23:35.248Z,96
2017-08-25T01:24:38.051Z,96
2017-08-25T01:25:40.506Z,96
2017-08-25T01:26:42.958Z,96
2017-08-25T01:27:45.423Z,97
2017-08-25T01:28:47.883Z,96
2017-08-25T01:29:50.321Z,97
2017-08-25T01:30:52.783Z,96
2017-08-25T01:31:55.238Z,96
2017-08-25T01:32:57.692Z,97
2017-08-25T01:34:00.136Z,97
2017-08-25T01:35:02.580Z,97
2017-08-25T01:36:05.039Z,97
2017-08-25T01:37:07.509Z,97
2017-08-25T01:38:09.956Z,97
2017-08-25T01:39:12.414Z,97
2017-08-25T01:40:14.868Z,97
2017-08-25T01:41:17.316Z,97
2017-08-25T01:42:19.764Z,97
2017-08-25T01:43:22.224Z,97
2017-08-25T01:44:24.675Z,97
2017-08-25T01:45:27.125Z,97
2017-08-25T01:46:29.944Z,97
2017-08-25T01:47:32.385Z,97
2017-08-25T01:48:35.191Z,97
2017-08-25T01:49:37.644Z,97
2017-08-25T01:50:40.098Z,97
2017-08-25T01:51:42.899Z,97
2017-08-25T01:52:45.359Z,97
2017-08-25T01:53:47.807Z,97
2017-08-25T01:54:50.256Z,97
2017-08-25T01:55:52.712Z,97
2017-08-25T01:56:55.171Z,97
2017-08-25T01:57:57.625Z,97
2017-08-25T01:59:00.075Z,97
2017-08-25T02:00:02.541Z,97
2017-08-25T02:01:04.992Z,97
2017-08-25T02:02:07.447Z,97
2017-08-25T02:03:09.895Z,97
2017-08-25T02:04:12.350Z,97
2017-08-25T02:05:14.800Z,97
2017-08-25T02:06:17.255Z,97
2017-08-25T02:07:19.708Z,97
2017-08-25T02:08:22.162Z,97
2017-08-25T02:09:24.950Z,97
2017-08-25T02:10:27.412Z,97
2017-08-25T02:11:29.867Z,97
2017-08-25T02:12:32.680Z,97
2017-08-25T02:13:35.135Z,97
2017-08-25T02:14:37.925Z,97
2017-08-25T02:15:40.385Z,97
2017-08-25T02:16:43.185Z,97
2017-08-25T02:17:45.642Z,97
2017-08-25T02:18:48.097Z,97
2017-08-25T02:19:50.561Z,97
2017-08-25T02:20:53.012Z,97
2017-08-25T02:21:55.471Z,97
2017-08-25T02:22:57.921Z,97
2017-08-25T02:24:00.377Z,97
2017-08-25T02:25:02.824Z,97
2017-08-25T02:26:05.291Z,97
2017-08-25T02:27:07.742Z,97
2017-08-25T02:28:10.195Z,97
2017-08-25T02:29:12.644Z,97
2017-08-25T02:30:15.096Z,97
2017-08-25T02:31:17.547Z,98
2017-08-25T02:32:20.011Z,98
2017-08-25T02:33:22.461Z,98
2017-08-25T02:34:24.917Z,98
2017-08-25T02:35:27.918Z,98
2017-08-25T02:36:30.717Z,98
2017-08-25T02:37:33.526Z,98
2017-08-25T02:38:35.983Z,98
2017-08-25T02:39:38.427Z,98
2017-08-25T02:40:41.232Z,98
2017-08-25T02:41:43.686Z,98
2017-08-25T02:42:46.136Z,98
2017-08-25T02:43:48.576Z,98
2017-08-25T02:44:51.031Z,98
2017-08-25T02:45:54.210Z,98
2017-08-25T02:46:56.666Z,98
2017-08-25T02:47:59.128Z,98
2017-08-25T02:49:01.579Z,98
2017-08-25T02:50:04.386Z,98
2017-08-25T02:51:06.841Z,98
2017-08-25T02:52:09.640Z,98
2017-08-25T02:53:12.081Z,98
2017-08-25T02:54:14.899Z,98
2017-08-25T02:55:17.353Z,98
2017-08-25T02:56:19.812Z,98
2017-08-25T02:57:22.598Z,98
2017-08-25T02:58:25.062Z,98
2017-08-25T02:59:27.515Z,98
2017-08-25T03:00:30.302Z,98
2017-08-25T03:01:32.759Z,98
2017-08-25T03:02:35.260Z,98
2017-08-25T03:03:37.710Z,98
2017-08-25T03:04:40.163Z,98
2017-08-25T03:05:42.637Z,98
2017-08-25T03:06:45.086Z,98
2017-08-25T03:07:47.553Z,98
2017-08-25T03:08:50.000Z,98
2017-08-25T03:09:52.827Z,98
2017-08-25T03:10:55.256Z,98
2017-08-25T03:11:58.045Z,98
2017-08-25T03:13:00.526Z,98
2017-08-25T03:14:02.980Z,98
2017-08-25T03:15:05.435Z,98
2017-08-25T03:16:07.890Z,98
2017-08-25T03:17:10.721Z,98
2017-08-25T03:18:13.169Z,98
2017-08-25T03:19:15.632Z,98
2017-08-25T03:20:18.129Z,98
2017-08-25T03:21:20.579Z,98
2017-08-25T03:22:23.086Z,98
2017-08-25T03:23:25.529Z,98
2017-08-25T03:24:27.997Z,98
2017-08-25T03:25:30.481Z,98
2017-08-25T03:26:33.272Z,98
2017-08-25T03:27:35.719Z,98
2017-08-25T03:28:38.169Z,98
2017-08-25T03:29:40.991Z,98
2017-08-25T03:30:43.453Z,98
2017-08-25T03:31:45.895Z,98
2017-08-25T03:32:48.402Z,98
2017-08-25T03:33:50.855Z,98
2017-08-25T03:34:53.351Z,98
2017-08-25T03:35:55.807Z,98
2017-08-25T03:36:58.257Z,98
2017-08-25T03:38:00.763Z,98
2017-08-25T03:39:03.219Z,98
2017-08-25T03:40:06.013Z,98
2017-08-25T03:41:09.151Z,98
2017-08-25T03:42:11.607Z,98
2017-08-25T03:43:14.057Z,98
2017-08-25T03:44:16.533Z,98
2017-08-25T03:45:19.330Z,98
2017-08-25T03:46:21.791Z,98
2017-08-25T03:47:24.290Z,98
2017-08-25T03:48:26.735Z,98
2017-08-25T03:49:29.221Z,98
2017-08-25T03:50:31.676Z,98
2017-08-25T03:51:34.123Z,98
2017-08-25T03:52:36.629Z,98
2017-08-25T03:53:39.077Z,98
2017-08-25T03:54:41.579Z,98
2017-08-25T03:55:44.037Z,98
2017-08-25T03:56:46.494Z,98
2017-08-25T03:57:48.974Z,98
2017-08-25T03:58:51.438Z,98
2017-08-25T03:59:53.889Z,98
2017-08-25T04:00:56.341Z,98
2017-08-25T04:01:59.157Z,98
2017-08-25T04:03:01.608Z,98
2017-08-25T04:04:04.065Z,98
2017-08-25T04:05:06.571Z,98
2017-08-25T04:06:09.016Z,98
2017-08-25T04:07:11.527Z,98
2017-08-25T04:08:13.988Z,98
2017-08-25T04:09:16.432Z,98
2017-08-25T04:10:19.235Z,98
2017-08-25T04:11:21.691Z,98
2017-08-25T04:12:24.134Z,98
2017-08-25T04:13:26.593Z,98
2017-08-25T04:14:29.077Z,99
2017-08-25T04:15:31.520Z,99
2017-08-25T04:16:33.988Z,98
2017-08-25T04:17:36.785Z,98
2017-08-25T04:18:39.230Z,98
2017-08-25T04:19:41.725Z,98
2017-08-25T04:20:44.181Z,99
2017-08-25T04:21:46.639Z,99
2017-08-25T04:22:49.120Z,99
2017-08-25T04:23:51.579Z,99
2017-08-25T04:24:54.033Z,99
2017-08-25T04:25:56.824Z,99
2017-08-25T04:26:59.297Z,99
2017-08-25T04:28:02.119Z,99
2017-08-25T04:29:04.563Z,99
2017-08-25T04:30:07.069Z,99
2017-08-25T04:31:09.864Z,99
2017-08-25T04:32:12.710Z,99
2017-08-25T04:33:15.175Z,99
2017-08-25T04:34:17.672Z,99
2017-08-25T04:35:20.120Z,99
2017-08-25T04:36:22.577Z,99
2017-08-25T04:37:25.076Z,99
2017-08-25T04:38:27.872Z,99
2017-08-25T04:39:30.329Z,99
2017-08-25T04:40:32.778Z,99
2017-08-25T04:41:35.581Z,99
2017-08-25T04:42:38.039Z,99
2017-08-25T04:43:40.837Z,99
2017-08-25T04:44:43.314Z,99
2017-08-25T04:45:45.770Z,99
2017-08-25T04:46:48.219Z,99
2017-08-25T04:47:51.013Z,99
2017-08-25T04:48:53.472Z,99
2017-08-25T04:49:55.909Z,99
2017-08-25T04:50:58.370Z,99
2017-08-25T04:52:00.875Z,99
2017-08-25T04:53:03.339Z,99
2017-08-25T04:54:05.836Z,99
2017-08-25T04:55:08.660Z,99
2017-08-25T04:56:11.144Z,99
2017-08-25T04:57:13.585Z,99
2017-08-25T04:58:16.039Z,99
2017-08-25T04:59:18.497Z,99
2017-08-25T05:00:20.944Z,99
2017-08-25T05:01:23.458Z,99
2017-08-25T05:02:25.911Z,99
2017-08-25T05:03:28.394Z,99
2017-08-25T05:04:30.853Z,99
2017-08-25T05:05:33.312Z,99
2017-08-25T05:06:35.756Z,99
2017-08-25T05:07:38.218Z,99
2017-08-25T05:08:40.754Z,99
2017-08-25T05:09:43.571Z,99
2017-08-25T05:10:46.422Z,99
2017-08-25T05:11:49.216Z,99
2017-08-25T05:12:51.666Z,99
2017-08-25T05:13:54.129Z,99
2017-08-25T05:14:56.609Z,99
2017-08-25T05:15:59.071Z,99
2017-08-25T05:17:01.522Z,99
2017-08-25T05:18:03.973Z,99
2017-08-25T05:19:06.424Z,99
2017-08-25T05:20:08.945Z,99
2017-08-25T05:21:11.390Z,99
2017-08-25T05:22:13.848Z,99
2017-08-25T05:23:16.302Z,99
2017-08-25T05:24:18.753Z,98
2017-08-25T05:25:21.244Z,98
2017-08-25T05:26:23.695Z,98
2017-08-25T05:27:26.150Z,98
2017-08-25T05:28:28.611Z,98
2017-08-25T05:29:31.070Z,98
2017-08-25T05:30:33.542Z,98
2017-08-25T05:31:35.991Z,98
2017-08-25T05:32:38.507Z,98
2017-08-25T05:33:40.955Z,98
2017-08-25T05:34:43.408Z,98
2017-08-25T05:35:45.860Z,98
2017-08-25T05:36:48.311Z,98
2017-08-25T05:37:50.818Z,98
2017-08-25T05:38:53.276Z,98
2017-08-25T05:39:55.713Z,98
2017-08-25T05:40:58.168Z,98
2017-08-25T05:42:00.736Z,98
2017-08-25T05:43:03.185Z,98
2017-08-25T05:44:05.641Z,97
2017-08-25T05:45:08.091Z,97
2017-08-25T05:46:10.539Z,97
2017-08-25T05:47:13.057Z,97
2017-08-25T05:48:15.521Z,97
2017-08-25T05:49:18.320Z,97
2017-08-25T05:50:20.773Z,97
2017-08-25T05:51:23.232Z,97
2017-08-25T05:52:25.690Z,97
2017-08-25T05:53:28.145Z,96
2017-08-25T05:54:30.636Z,96
2017-08-25T05:55:33.094Z,96
2017-08-25T05:56:35.533Z,96
2017-08-25T05:57:38.345Z,96
2017-08-25T05:58:41.177Z,96
2017-08-25T05:59:43.626Z,96
2017-08-25T06:00:46.092Z,96
2017-08-25T06:01:48.541Z,95
2017-08-25T06:02:50.994Z,95
2017-08-25T06:03:53.894Z,95
2017-08-25T06:04:56.351Z,95
2017-08-25T06:05:58.837Z,94
2017-08-25T06:07:01.301Z,94
2017-08-25T06:08:03.762Z,94
2017-08-25T06:09:06.565Z,94
2017-08-25T06:10:09.407Z,93
2017-08-25T06:11:11.856Z,93
2017-08-25T06:12:14.389Z,93
2017-08-25T06:13:16.855Z,93
2017-08-25T06:14:19.302Z,92
2017-08-25T06:15:21.758Z,92
2017-08-25T06:16:24.218Z,92
2017-08-25T06:17:26.689Z,93
2017-08-25T06:18:29.153Z,92
2017-08-25T06:19:31.608Z,92
2017-08-25T06:20:34.051Z,91
2017-08-25T06:21:36.933Z,91
2017-08-25T06:22:39.397Z,91
2017-08-25T06:23:41.851Z,91
2017-08-25T06:24:44.304Z,91
2017-08-25T06:25:47.098Z,91
2017-08-25T06:26:49.910Z,92
2017-08-25T06:27:52.389Z,92
2017-08-25T06:28:55.249Z,91
2017-08-25T06:29:57.697Z,90
2017-08-25T06:31:00.150Z,90
2017-08-25T06:32:02.612Z,90
2017-08-25T06:33:05.153Z,89
2017-08-25T06:34:07.609Z,88
2017-08-25T06:35:10.070Z,88
2017-08-25T06:36:12.526Z,88
2017-08-25T06:37:14.988Z,88
2017-08-25T06:38:17.780Z,88
2017-08-25T06:39:20.233Z,88
2017-08-25T06:40:22.782Z,88
2017-08-25T06:41:25.237Z,88
2017-08-25T06:42:27.692Z,88
2017-08-25T06:43:30.157Z,88
2017-08-25T06:44:32.659Z,88
2017-08-25T06:45:35.474Z,87
2017-08-25T06:46:37.935Z,88
2017-08-25T06:47:40.388Z,87
2017-08-25T06:48:42.851Z,88
2017-08-25T06:49:45.353Z,87
2017-08-25T06:50:47.808Z,87
2017-08-25T06:51:50.627Z,87
2017-08-25T06:52:53.081Z,87
2017-08-25T06:53:55.546Z,88
2017-08-25T06:54:58.003Z,88
2017-08-25T06:56:00.838Z,88
2017-08-25T06:57:03.294Z,87
2017-08-25T06:58:05.750Z,88
2017-08-25T06:59:08.205Z,87
2017-08-25T07:00:10.654Z,88
2017-08-25T07:01:13.154Z,87
2017-08-25T07:02:15.611Z,88
2017-08-25T07:03:18.069Z,87
2017-08-25T07:04:20.528Z,87
2017-08-25T07:05:22.987Z,87
2017-08-25T07:06:25.788Z,87
2017-08-25T07:07:28.582Z,87
2017-08-25T07:08:31.086Z,88
2017-08-25T07:09:33.539Z,88
2017-08-25T07:10:36.107Z,88
2017-08-25T07:11:38.573Z,88
2017-08-25T07:12:41.029Z,88
2017-08-25T07:13:43.486Z,88
2017-08-25T07:14:46.448Z,87
2017-08-25T07:15:48.977Z,88
2017-08-25T07:16:51.570Z,87
2017-08-25T07:17:54.117Z,87
2017-08-25T07:18:56.748Z,87
2017-08-25T07:19:59.213Z,87
2017-08-25T07:21:01.670Z,87
2017-08-25T07:22:04.128Z,87
2017-08-25T07:23:06.586Z,87
2017-08-25T07:24:09.042Z,87
2017-08-25T07:25:11.498Z,86
2017-08-25T07:26:14.299Z,86
2017-08-25T07:27:16.766Z,86
2017-08-25T07:28:19.211Z,86
2017-08-25T07:29:21.648Z,86
2017-08-25T07:30:24.066Z,86
2017-08-25T07:31:26.496Z,85
2017-08-25T07:32:28.915Z,86
2017-08-25T07:33:31.346Z,86
2017-08-25T07:34:33.793Z,85
2017-08-25T07:35:36.271Z,85
2017-08-25T07:36:39.538Z,86
2017-08-25T07:37:42.083Z,85
2017-08-25T07:38:44.564Z,85
2017-08-25T07:39:46.991Z,85
2017-08-25T07:40:49.446Z,85
2017-08-25T07:41:51.924Z,85
2017-08-25T07:42:54.384Z,84
2017-08-25T07:43:56.866Z,85
2017-08-25T07:44:59.300Z,84
2017-08-25T07:46:01.768Z,84
2017-08-25T07:47:04.249Z,84
2017-08-25T07:48:06.713Z,85
2017-08-25T07:49:09.141Z,83
2017-08-25T07:50:11.608Z,83
2017-08-25T07:51:14.034Z,84
2017-08-25T07:52:16.478Z,83
2017-08-25T07:53:18.975Z,83
2017-08-25T07:54:21.393Z,83
2017-08-25T07:55:23.814Z,82
2017-08-25T07:56:26.248Z,82
2017-08-25T07:57:29.048Z,82
2017-08-25T07:58:31.499Z,82
2017-08-25T07:59:34.282Z,82
2017-08-25T08:00:36.708Z,82
2017-08-25T08:01:39.546Z,80
2017-08-25T08:02:42.294Z,80
2017-08-25T08:03:44.790Z,80
2017-08-25T08:04:47.241Z,80
2017-08-25T08:05:49.658Z,79
2017-08-25T08:06:52.105Z,79
2017-08-25T08:07:54.513Z,80
2017-08-25T08:08:56.945Z,79
2017-08-25T08:09:59.369Z,75
2017-08-25T08:11:01.792Z,76
2017-08-25T08:12:04.243Z,74
2017-08-25T08:13:06.704Z,75
2017-08-25T08:14:09.157Z,77
2017-08-25T08:15:11.607Z,75
2017-08-25T08:16:14.033Z,77
2017-08-25T08:17:16.460Z,76
2017-08-25T08:18:19.277Z,76
2017-08-25T08:19:21.730Z,77
2017-08-25T08:20:24.191Z,76
2017-08-25T08:21:26.982Z,75
2017-08-25T08:22:29.472Z,76
2017-08-25T08:23:31.920Z,75
2017-08-25T08:24:34.334Z,75
2017-08-25T08:25:36.783Z,74
2017-08-25T08:26:39.268Z,74
2017-08-25T08:27:41.717Z,75
2017-08-25T08:28:44.502Z,73
2017-08-25T08:29:46.947Z,71
2017-08-25T08:30:49.359Z,73
2017-08-25T08:31:51.799Z,74
2017-08-25T08:32:54.212Z,72
2017-08-25T08:33:56.641Z,71
2017-08-25T08:34:59.084Z,72
2017-08-25T08:36:01.516Z,73
2017-08-25T08:37:03.924Z,73
2017-08-25T08:38:06.331Z,73
2017-08-25T08:39:08.750Z,70
2017-08-25T08:40:11.189Z,74
2017-08-25T08:41:13.685Z,72
2017-08-25T08:42:16.097Z,74
2017-08-25T08:43:18.512Z,74
2017-08-25T08:44:20.922Z,74
2017-08-25T08:45:23.354Z,70
2017-08-25T08:46:25.791Z,71
2017-08-25T08:47:28.214Z,69
2017-08-25T08:48:30.654Z,69
2017-08-25T08:49:33.081Z,70
2017-08-25T08:50:35.496Z,71
2017-08-25T08:51:37.926Z,71
2017-08-25T08:52:40.357Z,70
2017-08-25T08:53:43.102Z,69
2017-08-25T08:54:45.565Z,70
2017-08-25T08:55:47.980Z,71
2017-08-25T08:56:50.418Z,68
2017-08-25T08:57:52.835Z,66
2017-08-25T08:58:55.317Z,66
2017-08-25T08:59:57.748Z,67
2017-08-25T09:01:00.167Z,67
2017-08-25T09:02:02.641Z,67
2017-08-25T09:03:05.130Z,67
2017-08-25T09:04:07.536Z,69
2017-08-25T09:05:10.662Z,69
2017-08-25T09:06:13.291Z,71
2017-08-25T09:07:15.763Z,70
2017-08-25T09:08:18.175Z,70
2017-08-25T09:09:20.598Z,70
2017-08-25T09:10:23.016Z,70
2017-08-25T09:11:25.589Z,71
2017-08-25T09:12:28.092Z,72
2017-08-25T09:13:30.851Z,71
2017-08-25T09:14:33.396Z,72
2017-08-25T09:15:35.881Z,71
2017-08-25T09:16:38.356Z,71
2017-08-25T09:17:40.774Z,70
2017-08-25T09:18:43.210Z,71
2017-08-25T09:19:45.661Z,70
2017-08-25T09:20:48.215Z,70
2017-08-25T09:21:50.612Z,69
2017-08-25T09:22:53.096Z,68
2017-08-25T09:23:55.706Z,68
2017-08-25T09:24:58.117Z,66
2017-08-25T09:26:00.597Z,66
2017-08-25T09:27:03.408Z,66
2017-08-25T09:28:06.194Z,69
2017-08-25T09:29:08.611Z,68
2017-08-25T09:30:11.033Z,67
2017-08-25T09:31:13.453Z,65
2017-08-25T09:32:16.206Z,66
2017-08-25T09:33:18.622Z,64
2017-08-25T09:34:21.030Z,67
2017-08-25T09:35:23.452Z,67
2017-08-25T09:36:25.864Z,64
2017-08-25T09:37:28.278Z,64
2017-08-25T09:38:30.690Z,66
2017-08-25T09:39:33.102Z,64
2017-08-25T09:40:35.842Z,63
2017-08-25T09:41:38.265Z,67
2017-08-25T09:42:40.666Z,66
2017-08-25T09:43:43.160Z,63
2017-08-25T09:44:45.648Z,63
2017-08-25T09:45:48.047Z,62
2017-08-25T09:46:50.519Z,64
2017-08-25T09:47:52.943Z,62
2017-08-25T09:48:55.357Z,66
2017-08-25T09:49:57.764Z,66
2017-08-25T09:51:00.178Z,64
2017-08-25T09:52:02.597Z,64
2017-08-25T09:53:05.015Z,62
2017-08-25T09:54:07.432Z,61
2017-08-25T09:55:09.842Z,63
2017-08-25T09:56:12.245Z,62
2017-08-25T09:57:14.673Z,62
2017-08-25T09:58:17.098Z,60
2017-08-25T09:59:19.935Z,60
2017-08-25T10:00:22.416Z,64
2017-08-25T10:01:24.835Z,61
2017-08-25T10:02:27.311Z,60
2017-08-25T10:03:29.750Z,61
2017-08-25T10:04:32.159Z,63
2017-08-25T10:05:34.578Z,64
2017-08-25T10:06:37.007Z,59
2017-08-25T10:07:39.507Z,62
2017-08-25T10:08:41.924Z,58
2017-08-25T10:09:44.349Z,61
2017-08-25T10:10:46.766Z,61
2017-08-25T10:11:49.190Z,63
2017-08-25T10:12:51.611Z,64
2017-08-25T10:13:54.020Z,62
2017-08-25T10:14:56.441Z,61
2017-08-25T10:15:58.858Z,59
2017-08-25T10:17:01.271Z,59
2017-08-25T10:18:03.689Z,61
2017-08-25T10:19:06.100Z,60
2017-08-25T10:20:08.606Z,60
2017-08-25T10:21:11.353Z,61
2017-08-25T10:22:13.770Z,64
2017-08-25T10:23:16.190Z,62
2017-08-25T10:24:18.683Z,57
2017-08-25T10:25:21.094Z,56
2017-08-25T10:26:23.517Z,58
2017-08-25T10:27:25.931Z,58
2017-08-25T10:28:28.445Z,57
2017-08-25T10:29:30.871Z,58
2017-08-25T10:30:33.280Z,58
2017-08-25T10:31:35.694Z,60
2017-08-25T10:32:38.132Z,61
2017-08-25T10:33:40.611Z,60
2017-08-25T10:34:43.028Z,60
2017-08-25T10:35:45.454Z,59
2017-08-25T10:36:47.866Z,59
2017-08-25T10:37:50.288Z,61
2017-08-25T10:38:52.705Z,61
2017-08-25T10:39:55.235Z,63
2017-08-25T10:40:57.660Z,61
2017-08-25T10:42:00.079Z,59
2017-08-25T10:43:02.583Z,59
2017-08-25T10:44:05.007Z,60
2017-08-25T10:45:07.482Z,62
2017-08-25T10:46:09.953Z,62
2017-08-25T10:47:13.052Z,65
2017-08-25T10:48:15.467Z,66
2017-08-25T10:49:17.888Z,61
2017-08-25T10:50:20.407Z,60
2017-08-25T10:51:23.165Z,62
2017-08-25T10:52:25.581Z,60
2017-08-25T10:53:28.005Z,60
2017-08-25T10:54:30.428Z,63
2017-08-25T10:55:33.701Z,63
2017-08-25T10:56:36.116Z,65
2017-08-25T10:57:38.870Z,61
2017-08-25T10:58:41.291Z,63
2017-08-25T10:59:43.701Z,63
2017-08-25T11:00:46.341Z,63
2017-08-25T11:01:48.747Z,64
2017-08-25T11:02:51.525Z,67
2017-08-25T11:03:53.933Z,68
2017-08-25T11:04:56.550Z,68
2017-08-25T11:05:58.965Z,65
2017-08-25T11:07:01.380Z,65
2017-08-25T11:08:03.965Z,66
2017-08-25T11:09:06.708Z,68
2017-08-25T11:10:09.132Z,67
2017-08-25T11:11:11.544Z,65
2017-08-25T11:12:13.952Z,68
2017-08-25T11:13:16.373Z,64
2017-08-25T11:14:18.777Z,66
2017-08-25T11:15:21.196Z,65
2017-08-25T11:16:23.609Z,64
2017-08-25T11:17:26.022Z,65
2017-08-25T11:18:28.643Z,66
2017-08-25T11:19:31.057Z,67
2017-08-25T11:20:33.484Z,66
2017-08-25T11:21:36.059Z,64
2017-08-25T11:22:38.468Z,66
2017-08-25T11:23:41.224Z,65
2017-08-25T11:24:43.636Z,64
2017-08-25T11:25:46.048Z,66
2017-08-25T11:26:48.463Z,69
2017-08-25T11:27:50.869Z,63
2017-08-25T11:28:53.279Z,63
2017-08-25T11:29:55.702Z,62
2017-08-25T11:30:58.113Z,61
2017-08-25T11:32:01.039Z,64
2017-08-25T11:33:08.406Z,60
2017-08-25T11:34:21.621Z,61
2017-08-25T11:35:35.733Z,62
2017-08-25T11:36:49.446Z,65
2017-08-25T11:38:01.733Z,64
2017-08-25T11:39:19.116Z,61
2017-08-25T11:40:33.458Z,65
2017-08-25T11:41:47.075Z,64
2017-08-25T11:42:56.761Z,64
2017-08-25T11:44:10.487Z,62
2017-08-25T11:45:23.450Z,64
2017-08-25T11:46:30.569Z,64
2017-08-25T11:47:33.030Z,66
2017-08-25T11:48:35.467Z,64
2017-08-25T11:49:37.889Z,65
2017-08-25T11:50:40.668Z,64
2017-08-25T11:51:43.109Z,65
2017-08-25T11:52:45.519Z,67
2017-08-25T11:53:47.938Z,67
2017-08-25T11:54:50.365Z,67
2017-08-25T11:55:53.111Z,68
2017-08-25T11:56:55.525Z,65
2017-08-25T11:57:57.941Z,62
2017-08-25T11:59:00.666Z,62
2017-08-25T12:00:03.091Z,62
2017-08-25T12:01:06.037Z,64
2017-08-25T12:02:08.469Z,61
2017-08-25T12:03:11.244Z,61
2017-08-25T12:04:13.709Z,58
2017-08-25T12:05:17.332Z,58
2017-08-25T12:06:19.767Z,57
2017-08-25T12:07:22.184Z,57
2017-08-25T12:08:24.600Z,56
2017-08-25T12:09:27.034Z,58
2017-08-25T12:10:29.856Z,59
2017-08-25T12:11:32.394Z,57
2017-08-25T12:12:35.031Z,57
2017-08-25T12:13:37.453Z,56
2017-08-25T12:14:39.881Z,56
2017-08-25T12:15:42.302Z,55
2017-08-25T12:16:44.865Z,55
2017-08-25T12:17:47.303Z,57
2017-08-25T12:18:49.736Z,60
2017-08-25T12:19:52.139Z,57
2017-08-25T12:20:54.565Z,58
2017-08-25T12:21:56.982Z,59
2017-08-25T12:22:59.403Z,60
2017-08-25T12:24:02.159Z,61
2017-08-25T12:25:04.570Z,61
2017-08-25T12:26:06.979Z,62
2017-08-25T12:27:09.393Z,61
2017-08-25T12:28:12.084Z,61
2017-08-25T12:29:14.554Z,61
2017-08-25T12:30:17.691Z,60
2017-08-25T12:31:20.461Z,57
2017-08-25T12:32:22.882Z,56
2017-08-25T12:33:25.298Z,58
2017-08-25T12:34:27.716Z,57
2017-08-25T12:35:30.256Z,57
2017-08-25T12:36:32.673Z,56
2017-08-25T12:37:35.091Z,57
2017-08-25T12:38:37.503Z,58
2017-08-25T12:39:39.917Z,56
2017-08-25T12:40:42.340Z,56
2017-08-25T12:41:44.858Z,58
2017-08-25T12:42:47.301Z,56
2017-08-25T12:43:49.722Z,58
2017-08-25T12:44:52.139Z,61
2017-08-25T12:45:54.563Z,60
2017-08-25T12:46:56.977Z,60
2017-08-25T12:47:59.385Z,59
2017-08-25T12:49:01.888Z,59
2017-08-25T12:50:04.329Z,59
2017-08-25T12:51:06.743Z,60
2017-08-25T12:52:09.159Z,60
2017-08-25T12:53:11.595Z,61
2017-08-25T12:54:14.000Z,62
2017-08-25T12:55:16.740Z,61
2017-08-25T12:56:19.156Z,60
2017-08-25T12:57:21.587Z,60
2017-08-25T12:58:24.010Z,63
2017-08-25T12:59:26.445Z,64
2017-08-25T13:00:28.854Z,64
2017-08-25T13:01:31.299Z,65
2017-08-25T13:02:33.724Z,64
2017-08-25T13:03:36.136Z,64
2017-08-25T13:04:38.552Z,63
2017-08-25T13:05:41.702Z,62
2017-08-25T13:06:44.464Z,64
2017-08-25T13:07:47.188Z,66
2017-08-25T13:08:49.601Z,66
2017-08-25T13:09:52.367Z,65
2017-08-25T13:10:54.785Z,65
2017-08-25T13:11:57.204Z,66
2017-08-25T13:12:59.624Z,63
2017-08-25T13:14:02.250Z,62
2017-08-25T13:15:04.665Z,62
2017-08-25T13:16:07.080Z,65
2017-08-25T13:17:09.499Z,65
2017-08-25T13:18:11.970Z,63
2017-08-25T13:19:15.253Z,63
2017-08-25T13:20:17.971Z,61
2017-08-25T13:21:20.394Z,59
2017-08-25T13:22:22.816Z,59
2017-08-25T13:23:25.480Z,60
2017-08-25T13:24:27.913Z,59
2017-08-25T13:25:30.338Z,58
2017-08-25T13:26:32.763Z,62
2017-08-25T13:27:35.178Z,59
2017-08-25T13:28:37.728Z,58
2017-08-25T13:29:40.142Z,56
2017-08-25T13:30:42.911Z,57
2017-08-25T13:31:45.327Z,59
2017-08-25T13:32:48.301Z,58
2017-08-25T13:33:52.464Z,55
2017-08-25T13:34:54.915Z,54
2017-08-25T13:35:57.335Z,56
2017-08-25T13:36:59.770Z,56
2017-08-25T13:38:02.193Z,57
2017-08-25T13:39:04.610Z,54
2017-08-25T13:40:07.047Z,54
2017-08-25T13:41:09.817Z,53
2017-08-25T13:42:12.604Z,54
2017-08-25T13:43:15.908Z,54
2017-08-25T13:44:18.324Z,57
2017-08-25T13:45:20.747Z,54
2017-08-25T13:46:23.817Z,54
2017-08-25T13:47:26.381Z,54
2017-08-25T13:48:28.812Z,57
2017-08-25T13:49:31.230Z,54
2017-08-25T13:50:33.663Z,54
2017-08-25T13:51:36.079Z,54
2017-08-25T13:52:38.508Z,54
2017-08-25T13:53:40.932Z,57
2017-08-25T13:54:43.442Z,58
2017-08-25T13:55:46.215Z,55
2017-08-25T13:56:48.630Z,56
2017-08-25T13:57:51.045Z,57
2017-08-25T13:58:53.462Z,57
2017-08-25T13:59:55.883Z,57
2017-08-25T14:00:58.310Z,57
2017-08-25T14:02:00.733Z,58
2017-08-25T14:03:03.153Z,56
2017-08-25T14:04:05.576Z,55
2017-08-25T14:05:07.992Z,56
2017-08-25T14:06:10.743Z,55
2017-08-25T14:07:13.168Z,55
2017-08-25T14:08:15.583Z,56
2017-08-25T14:09:17.996Z,56
2017-08-25T14:10:20.423Z,54
2017-08-25T14:11:22.843Z,53
2017-08-25T14:12:25.265Z,54
2017-08-25T14:13:27.685Z,55
2017-08-25T14:14:30.313Z,57
2017-08-25T14:15:32.733Z,58
2017-08-25T14:16:35.160Z,58
2017-08-25T14:17:37.573Z,56
2017-08-25T14:18:39.978Z,57
2017-08-25T14:19:42.406Z,58
2017-08-25T14:20:45.174Z,58
2017-08-25T14:21:47.596Z,56
2017-08-25T14:22:50.015Z,56
2017-08-25T14:23:52.430Z,55
2017-08-25T14:24:54.839Z,56
2017-08-25T14:25:57.264Z,56
2017-08-25T14:26:59.679Z,58
2017-08-25T14:28:02.140Z,56
2017-08-25T14:29:04.864Z,56
2017-08-25T14:30:07.291Z,56
2017-08-25T14:31:09.710Z,58
2017-08-25T14:32:12.137Z,57
2017-08-25T14:33:14.550Z,57
2017-08-25T14:34:16.959Z,57
2017-08-25T14:35:19.382Z,57
2017-08-25T14:36:21.795Z,57
2017-08-25T14:37:24.207Z,60
2017-08-25T14:38:26.628Z,60
2017-08-25T14:39:29.406Z,60
2017-08-25T14:40:31.829Z,61
2017-08-25T14:41:34.248Z,61
2017-08-25T14:42:36.652Z,62
2017-08-25T14:43:39.451Z,60
2017-08-25T14:44:41.875Z,61
2017-08-25T14:45:44.637Z,63
2017-08-25T14:46:47.050Z,60
2017-08-25T14:47:49.462Z,61
2017-08-25T14:48:51.883Z,59
2017-08-25T14:49:54.294Z,61
2017-08-25T14:50:56.715Z,64
2017-08-25T14:51:59.133Z,60
2017-08-25T14:53:01.550Z,61